sensor_id;sensor_type;location;lat;lon;timestamp;temperature;humidity
21906;DHT22;11117;48.644;9.006;2023-12-20T00:00:55;7.00;99.90
21906;DHT22;11117;48.644;9.006;2023-12-20T00:03:21;7.10;99.90
21906;DHT22;11117;48.644;9.006;2023-12-20T00:05:47;7.20;99.90
21906;DHT22;11117;48.644;9.006;2023-12-20T00:08:13;7.10;99.90
21906;DHT22;11117;48.644;9.006;2023-12-20T00:10:38;7.00;99.90
21906;DHT22;11117;48.644;9.006;2023-12-20T00:13:04;6.80;99.90
21906;DHT22;11117;48.644;9.006;2023-12-20T00:15:29;6.90;99.90
21906;DHT22;11117;48.644;9.006;2023-12-20T00:17:55;7.10;99.90
21906;DHT22;11117;48.644;9.006;2023-12-20T00:20:21;7.20;99.90
21906;DHT22;11117;48.644;9.006;2023-12-20T00:22:46;7.10;99.90
21906;DHT22;11117;48.644;9.006;2023-12-20T00:25:12;7.10;99.90
21906;DHT22;11117;48.644;9.006;2023-12-20T00:27:39;7.00;99.90
21906;DHT22;11117;48.644;9.006;2023-12-20T00:30:05;6.90;99.90
21906;DHT22;11117;48.644;9.006;2023-12-20T00:32:30;7.00;99.90
21906;DHT22;11117;48.644;9.006;2023-12-20T00:34:56;7.10;99.90
21906;DHT22;11117;48.644;9.006;2023-12-20T00:37:22;7.10;99.90
21906;DHT22;11117;48.644;9.006;2023-12-20T00:39:48;7.20;99.90
21906;DHT22;11117;48.644;9.006;2023-12-20T00:42:13;7.30;99.90
21906;DHT22;11117;48.644;9.006;2023-12-20T00:44:39;7.20;99.90
21906;DHT22;11117;48.644;9.006;2023-12-20T00:47:05;7.20;99.90
21906;DHT22;11117;48.644;9.006;2023-12-20T00:49:30;7.20;99.90
21906;DHT22;11117;48.644;9.006;2023-12-20T00:51:56;7.10;99.90
21906;DHT22;11117;48.644;9.006;2023-12-20T00:54:21;7.20;99.90
21906;DHT22;11117;48.644;9.006;2023-12-20T00:56:47;7.40;99.90
21906;DHT22;11117;48.644;9.006;2023-12-20T00:59:12;7.40;99.90
21906;DHT22;11117;48.644;9.006;2023-12-20T01:01:38;7.30;99.90
21906;DHT22;11117;48.644;9.006;2023-12-20T01:04:04;7.30;99.90
21906;DHT22;11117;48.644;9.006;2023-12-20T01:06:30;7.30;99.90
21906;DHT22;11117;48.644;9.006;2023-12-20T01:08:56;7.20;99.90
21906;DHT22;11117;48.644;9.006;2023-12-20T01:11:21;7.10;99.90
21906;DHT22;11117;48.644;9.006;2023-12-20T01:13:47;7.10;99.90
21906;DHT22;11117;48.644;9.006;2023-12-20T01:16:13;7.10;99.90
21906;DHT22;11117;48.644;9.006;2023-12-20T01:18:38;7.10;99.90
21906;DHT22;11117;48.644;9.006;2023-12-20T01:21:04;7.20;99.90
21906;DHT22;11117;48.644;9.006;2023-12-20T01:23:32;7.10;99.90
21906;DHT22;11117;48.644;9.006;2023-12-20T01:25:58;7.10;99.90
21906;DHT22;11117;48.644;9.006;2023-12-20T01:28:24;7.20;99.90
21906;DHT22;11117;48.644;9.006;2023-12-20T01:30:50;7.10;99.90
21906;DHT22;11117;48.644;9.006;2023-12-20T01:33:15;6.70;99.90
21906;DHT22;11117;48.644;9.006;2023-12-20T01:35:41;6.60;99.90
21906;DHT22;11117;48.644;9.006;2023-12-20T01:38:06;6.80;99.90
21906;DHT22;11117;48.644;9.006;2023-12-20T01:40:32;6.70;99.90
21906;DHT22;11117;48.644;9.006;2023-12-20T01:43:02;6.50;99.90
21906;DHT22;11117;48.644;9.006;2023-12-20T01:45:28;6.60;99.90
21906;DHT22;11117;48.644;9.006;2023-12-20T01:47:55;6.30;99.90
21906;DHT22;11117;48.644;9.006;2023-12-20T01:50:21;6.30;99.90
21906;DHT22;11117;48.644;9.006;2023-12-20T01:52:47;6.30;99.90
21906;DHT22;11117;48.644;9.006;2023-12-20T01:55:13;6.10;99.90
21906;DHT22;11117;48.644;9.006;2023-12-20T01:57:43;6.20;99.90
21906;DHT22;11117;48.644;9.006;2023-12-20T02:00:10;6.10;99.90
21906;DHT22;11117;48.644;9.006;2023-12-20T02:02:40;6.10;99.90
21906;DHT22;11117;48.644;9.006;2023-12-20T02:05:06;6.30;99.90
21906;DHT22;11117;48.644;9.006;2023-12-20T02:07:32;6.30;99.90
21906;DHT22;11117;48.644;9.006;2023-12-20T02:09:58;6.40;99.90
21906;DHT22;11117;48.644;9.006;2023-12-20T02:12:26;6.30;99.90
21906;DHT22;11117;48.644;9.006;2023-12-20T02:14:52;6.40;99.90
21906;DHT22;11117;48.644;9.006;2023-12-20T02:17:17;6.40;99.90
21906;DHT22;11117;48.644;9.006;2023-12-20T02:19:43;6.40;99.90
21906;DHT22;11117;48.644;9.006;2023-12-20T02:22:10;6.30;99.90
21906;DHT22;11117;48.644;9.006;2023-12-20T02:24:35;6.30;99.90
21906;DHT22;11117;48.644;9.006;2023-12-20T02:27:01;6.30;99.90
21906;DHT22;11117;48.644;9.006;2023-12-20T02:29:27;6.20;99.90
21906;DHT22;11117;48.644;9.006;2023-12-20T02:31:53;6.30;99.90
21906;DHT22;11117;48.644;9.006;2023-12-20T02:34:18;6.20;99.90
21906;DHT22;11117;48.644;9.006;2023-12-20T02:36:44;6.00;99.90
21906;DHT22;11117;48.644;9.006;2023-12-20T02:39:09;5.90;99.90
21906;DHT22;11117;48.644;9.006;2023-12-20T02:41:35;5.80;99.90
21906;DHT22;11117;48.644;9.006;2023-12-20T02:44:01;5.70;99.90
21906;DHT22;11117;48.644;9.006;2023-12-20T02:46:27;5.70;99.90
21906;DHT22;11117;48.644;9.006;2023-12-20T02:48:52;5.60;99.90
21906;DHT22;11117;48.644;9.006;2023-12-20T02:51:18;5.60;99.90
21906;DHT22;11117;48.644;9.006;2023-12-20T02:53:44;5.50;99.90
21906;DHT22;11117;48.644;9.006;2023-12-20T02:56:09;5.50;99.90
21906;DHT22;11117;48.644;9.006;2023-12-20T02:58:35;5.40;99.90
21906;DHT22;11117;48.644;9.006;2023-12-20T03:01:01;5.40;99.90
21906;DHT22;11117;48.644;9.006;2023-12-20T03:03:28;5.40;99.90
21906;DHT22;11117;48.644;9.006;2023-12-20T03:05:53;5.40;99.90
21906;DHT22;11117;48.644;9.006;2023-12-20T03:08:19;5.40;99.90
21906;DHT22;11117;48.644;9.006;2023-12-20T03:10:44;5.40;99.90
21906;DHT22;11117;48.644;9.006;2023-12-20T03:13:10;5.40;99.90
21906;DHT22;11117;48.644;9.006;2023-12-20T03:15:35;5.40;99.90
21906;DHT22;11117;48.644;9.006;2023-12-20T03:18:01;5.50;99.90
21906;DHT22;11117;48.644;9.006;2023-12-20T03:20:27;5.50;99.90
21906;DHT22;11117;48.644;9.006;2023-12-20T03:22:52;5.60;99.90
21906;DHT22;11117;48.644;9.006;2023-12-20T03:25:18;5.50;99.90
21906;DHT22;11117;48.644;9.006;2023-12-20T03:27:43;5.50;99.90
21906;DHT22;11117;48.644;9.006;2023-12-20T03:30:09;5.50;99.90
21906;DHT22;11117;48.644;9.006;2023-12-20T03:32:35;5.50;99.90
21906;DHT22;11117;48.644;9.006;2023-12-20T03:35:00;5.50;99.90
21906;DHT22;11117;48.644;9.006;2023-12-20T03:37:28;5.50;99.90
21906;DHT22;11117;48.644;9.006;2023-12-20T03:39:53;5.40;99.90
21906;DHT22;11117;48.644;9.006;2023-12-20T03:42:19;5.40;99.90
21906;DHT22;11117;48.644;9.006;2023-12-20T03:44:44;5.40;99.90
21906;DHT22;11117;48.644;9.006;2023-12-20T03:47:10;5.30;99.90
21906;DHT22;11117;48.644;9.006;2023-12-20T03:49:35;5.30;99.90
21906;DHT22;11117;48.644;9.006;2023-12-20T03:52:01;5.20;99.90
21906;DHT22;11117;48.644;9.006;2023-12-20T03:54:27;5.30;99.90
21906;DHT22;11117;48.644;9.006;2023-12-20T03:56:52;5.20;99.90
21906;DHT22;11117;48.644;9.006;2023-12-20T03:59:18;5.20;99.90
21906;DHT22;11117;48.644;9.006;2023-12-20T04:01:43;5.20;99.90
21906;DHT22;11117;48.644;9.006;2023-12-20T04:04:09;5.10;99.90
21906;DHT22;11117;48.644;9.006;2023-12-20T04:06:35;5.10;99.90
21906;DHT22;11117;48.644;9.006;2023-12-20T04:09:00;5.10;99.90
21906;DHT22;11117;48.644;9.006;2023-12-20T04:11:27;5.10;99.90
21906;DHT22;11117;48.644;9.006;2023-12-20T04:13:53;5.00;99.90
21906;DHT22;11117;48.644;9.006;2023-12-20T04:16:18;5.00;99.90
21906;DHT22;11117;48.644;9.006;2023-12-20T04:18:44;5.00;99.90
21906;DHT22;11117;48.644;9.006;2023-12-20T04:21:09;5.00;99.90
21906;DHT22;11117;48.644;9.006;2023-12-20T04:23:35;5.00;99.90
21906;DHT22;11117;48.644;9.006;2023-12-20T04:26:00;5.00;99.90
21906;DHT22;11117;48.644;9.006;2023-12-20T04:28:26;5.10;99.90
21906;DHT22;11117;48.644;9.006;2023-12-20T04:30:51;5.00;99.90
21906;DHT22;11117;48.644;9.006;2023-12-20T04:33:17;5.00;99.90
21906;DHT22;11117;48.644;9.006;2023-12-20T04:35:43;5.10;99.90
21906;DHT22;11117;48.644;9.006;2023-12-20T04:38:09;5.10;99.90
21906;DHT22;11117;48.644;9.006;2023-12-20T04:40:34;5.00;99.90
21906;DHT22;11117;48.644;9.006;2023-12-20T04:43:00;5.00;99.90
21906;DHT22;11117;48.644;9.006;2023-12-20T04:45:26;5.00;99.90
21906;DHT22;11117;48.644;9.006;2023-12-20T04:47:51;5.00;99.90
21906;DHT22;11117;48.644;9.006;2023-12-20T04:50:17;4.90;99.90
21906;DHT22;11117;48.644;9.006;2023-12-20T04:52:42;4.90;99.90
21906;DHT22;11117;48.644;9.006;2023-12-20T04:55:08;4.90;99.90
21906;DHT22;11117;48.644;9.006;2023-12-20T04:57:35;4.90;99.90
21906;DHT22;11117;48.644;9.006;2023-12-20T05:00:00;5.00;99.90
21906;DHT22;11117;48.644;9.006;2023-12-20T05:02:28;5.00;99.90
21906;DHT22;11117;48.644;9.006;2023-12-20T05:04:54;5.00;99.90
21906;DHT22;11117;48.644;9.006;2023-12-20T05:07:21;5.00;99.90
21906;DHT22;11117;48.644;9.006;2023-12-20T05:09:46;5.00;99.90
21906;DHT22;11117;48.644;9.006;2023-12-20T05:12:12;5.00;99.90
21906;DHT22;11117;48.644;9.006;2023-12-20T05:14:38;5.00;99.90
21906;DHT22;11117;48.644;9.006;2023-12-20T05:17:04;5.00;99.90
21906;DHT22;11117;48.644;9.006;2023-12-20T05:19:29;5.00;99.90
21906;DHT22;11117;48.644;9.006;2023-12-20T05:21:55;5.00;99.90
21906;DHT22;11117;48.644;9.006;2023-12-20T05:24:20;4.90;99.90
21906;DHT22;11117;48.644;9.006;2023-12-20T05:26:46;5.00;99.90
21906;DHT22;11117;48.644;9.006;2023-12-20T05:29:11;5.10;99.90
21906;DHT22;11117;48.644;9.006;2023-12-20T05:31:37;5.10;99.90
21906;DHT22;11117;48.644;9.006;2023-12-20T05:34:03;5.10;99.90
21906;DHT22;11117;48.644;9.006;2023-12-20T05:36:28;5.10;99.90
21906;DHT22;11117;48.644;9.006;2023-12-20T05:38:54;5.10;99.90
21906;DHT22;11117;48.644;9.006;2023-12-20T05:41:20;5.10;99.90
21906;DHT22;11117;48.644;9.006;2023-12-20T05:43:45;5.10;99.90
21906;DHT22;11117;48.644;9.006;2023-12-20T05:46:11;5.10;99.90
21906;DHT22;11117;48.644;9.006;2023-12-20T05:48:36;5.10;99.90
21906;DHT22;11117;48.644;9.006;2023-12-20T05:51:02;5.20;99.90
21906;DHT22;11117;48.644;9.006;2023-12-20T05:53:28;5.30;99.90
21906;DHT22;11117;48.644;9.006;2023-12-20T05:55:54;5.30;99.90
21906;DHT22;11117;48.644;9.006;2023-12-20T05:58:19;5.40;99.90
21906;DHT22;11117;48.644;9.006;2023-12-20T06:00:45;5.60;99.90
21906;DHT22;11117;48.644;9.006;2023-12-20T06:03:10;5.70;99.90
21906;DHT22;11117;48.644;9.006;2023-12-20T06:05:36;5.60;99.90
21906;DHT22;11117;48.644;9.006;2023-12-20T06:08:01;5.50;99.90
21906;DHT22;11117;48.644;9.006;2023-12-20T06:10:27;5.60;99.90
21906;DHT22;11117;48.644;9.006;2023-12-20T06:12:52;5.60;99.90
21906;DHT22;11117;48.644;9.006;2023-12-20T06:15:18;5.50;99.90
21906;DHT22;11117;48.644;9.006;2023-12-20T06:17:44;5.70;99.90
21906;DHT22;11117;48.644;9.006;2023-12-20T06:20:10;5.60;99.90
21906;DHT22;11117;48.644;9.006;2023-12-20T06:22:36;5.70;99.90
21906;DHT22;11117;48.644;9.006;2023-12-20T06:25:02;5.80;99.90
21906;DHT22;11117;48.644;9.006;2023-12-20T06:27:29;5.70;99.90
21906;DHT22;11117;48.644;9.006;2023-12-20T06:29:55;5.70;99.90
21906;DHT22;11117;48.644;9.006;2023-12-20T06:32:21;5.50;99.90
21906;DHT22;11117;48.644;9.006;2023-12-20T06:34:46;5.30;99.90
21906;DHT22;11117;48.644;9.006;2023-12-20T06:37:12;5.30;99.90
21906;DHT22;11117;48.644;9.006;2023-12-20T06:39:38;5.20;99.90
21906;DHT22;11117;48.644;9.006;2023-12-20T06:42:03;5.20;99.90
21906;DHT22;11117;48.644;9.006;2023-12-20T06:44:29;5.20;99.90
21906;DHT22;11117;48.644;9.006;2023-12-20T06:46:54;5.20;99.90
21906;DHT22;11117;48.644;9.006;2023-12-20T06:49:20;5.30;99.90
21906;DHT22;11117;48.644;9.006;2023-12-20T06:51:45;5.40;99.90
21906;DHT22;11117;48.644;9.006;2023-12-20T06:54:11;5.40;99.90
21906;DHT22;11117;48.644;9.006;2023-12-20T06:56:36;5.30;99.90
21906;DHT22;11117;48.644;9.006;2023-12-20T06:59:02;5.20;99.90
21906;DHT22;11117;48.644;9.006;2023-12-20T07:01:27;5.30;99.90
21906;DHT22;11117;48.644;9.006;2023-12-20T07:03:53;5.40;99.90
21906;DHT22;11117;48.644;9.006;2023-12-20T07:06:18;5.50;99.90
21906;DHT22;11117;48.644;9.006;2023-12-20T07:08:44;5.30;99.90
21906;DHT22;11117;48.644;9.006;2023-12-20T07:11:10;5.30;99.90
21906;DHT22;11117;48.644;9.006;2023-12-20T07:13:35;5.30;99.90
21906;DHT22;11117;48.644;9.006;2023-12-20T07:16:01;5.50;99.90
21906;DHT22;11117;48.644;9.006;2023-12-20T07:18:26;5.50;99.90
21906;DHT22;11117;48.644;9.006;2023-12-20T07:20:52;5.60;99.90
21906;DHT22;11117;48.644;9.006;2023-12-20T07:23:19;5.50;99.90
21906;DHT22;11117;48.644;9.006;2023-12-20T07:25:44;5.60;99.90
21906;DHT22;11117;48.644;9.006;2023-12-20T07:28:10;5.70;99.90
21906;DHT22;11117;48.644;9.006;2023-12-20T07:30:36;5.60;99.90
21906;DHT22;11117;48.644;9.006;2023-12-20T07:33:03;5.50;99.90
21906;DHT22;11117;48.644;9.006;2023-12-20T07:35:29;5.40;99.90
21906;DHT22;11117;48.644;9.006;2023-12-20T07:37:55;5.40;99.90
21906;DHT22;11117;48.644;9.006;2023-12-20T07:40:20;5.40;99.90
21906;DHT22;11117;48.644;9.006;2023-12-20T07:42:46;5.30;99.90
21906;DHT22;11117;48.644;9.006;2023-12-20T07:45:11;5.10;99.90
21906;DHT22;11117;48.644;9.006;2023-12-20T07:47:37;5.10;99.90
21906;DHT22;11117;48.644;9.006;2023-12-20T07:50:03;5.00;99.90
21906;DHT22;11117;48.644;9.006;2023-12-20T07:52:29;5.00;99.90
21906;DHT22;11117;48.644;9.006;2023-12-20T07:54:55;4.90;99.90
21906;DHT22;11117;48.644;9.006;2023-12-20T07:57:20;5.00;99.90
21906;DHT22;11117;48.644;9.006;2023-12-20T07:59:46;5.00;99.90
21906;DHT22;11117;48.644;9.006;2023-12-20T08:02:12;4.90;99.90
21906;DHT22;11117;48.644;9.006;2023-12-20T08:04:38;5.00;99.90
21906;DHT22;11117;48.644;9.006;2023-12-20T08:07:04;5.00;99.90
21906;DHT22;11117;48.644;9.006;2023-12-20T08:09:29;5.00;99.90
21906;DHT22;11117;48.644;9.006;2023-12-20T08:11:55;5.00;99.90
21906;DHT22;11117;48.644;9.006;2023-12-20T08:14:21;5.10;99.90
21906;DHT22;11117;48.644;9.006;2023-12-20T08:16:47;5.20;99.90
21906;DHT22;11117;48.644;9.006;2023-12-20T08:19:13;5.40;99.90
21906;DHT22;11117;48.644;9.006;2023-12-20T08:21:38;5.60;99.90
21906;DHT22;11117;48.644;9.006;2023-12-20T08:24:04;5.70;99.90
21906;DHT22;11117;48.644;9.006;2023-12-20T08:26:29;6.00;99.90
21906;DHT22;11117;48.644;9.006;2023-12-20T08:28:55;5.90;99.90
21906;DHT22;11117;48.644;9.006;2023-12-20T08:31:20;6.10;99.90
21906;DHT22;11117;48.644;9.006;2023-12-20T08:33:47;6.20;99.90
21906;DHT22;11117;48.644;9.006;2023-12-20T08:36:13;6.30;99.90
21906;DHT22;11117;48.644;9.006;2023-12-20T08:38:39;6.20;99.90
21906;DHT22;11117;48.644;9.006;2023-12-20T08:41:05;6.30;99.90
21906;DHT22;11117;48.644;9.006;2023-12-20T08:43:31;6.20;99.90
21906;DHT22;11117;48.644;9.006;2023-12-20T08:45:57;6.10;99.90
21906;DHT22;11117;48.644;9.006;2023-12-20T08:48:22;5.80;99.90
21906;DHT22;11117;48.644;9.006;2023-12-20T08:50:48;5.40;99.90
21906;DHT22;11117;48.644;9.006;2023-12-20T08:53:14;5.20;99.90
21906;DHT22;11117;48.644;9.006;2023-12-20T08:55:39;4.90;99.90
21906;DHT22;11117;48.644;9.006;2023-12-20T08:58:05;4.80;99.90
21906;DHT22;11117;48.644;9.006;2023-12-20T09:00:30;4.80;99.90
21906;DHT22;11117;48.644;9.006;2023-12-20T09:02:56;4.70;99.90
21906;DHT22;11117;48.644;9.006;2023-12-20T09:05:21;4.70;99.90
21906;DHT22;11117;48.644;9.006;2023-12-20T09:07:47;4.70;99.90
21906;DHT22;11117;48.644;9.006;2023-12-20T09:10:12;4.60;99.90
21906;DHT22;11117;48.644;9.006;2023-12-20T09:12:38;4.50;99.90
21906;DHT22;11117;48.644;9.006;2023-12-20T09:15:04;4.40;99.90
21906;DHT22;11117;48.644;9.006;2023-12-20T09:17:30;4.30;99.90
21906;DHT22;11117;48.644;9.006;2023-12-20T09:19:55;4.30;99.90
21906;DHT22;11117;48.644;9.006;2023-12-20T09:22:21;4.20;99.90
21906;DHT22;11117;48.644;9.006;2023-12-20T09:24:46;4.20;99.90
21906;DHT22;11117;48.644;9.006;2023-12-20T09:27:12;4.20;99.90
21906;DHT22;11117;48.644;9.006;2023-12-20T09:29:38;4.00;99.90
21906;DHT22;11117;48.644;9.006;2023-12-20T09:32:03;4.10;99.90
21906;DHT22;11117;48.644;9.006;2023-12-20T09:34:29;4.10;99.90
21906;DHT22;11117;48.644;9.006;2023-12-20T09:36:55;4.10;99.90
21906;DHT22;11117;48.644;9.006;2023-12-20T09:39:21;4.40;99.90
21906;DHT22;11117;48.644;9.006;2023-12-20T09:42:04;4.50;99.90
21906;DHT22;11117;48.644;9.006;2023-12-20T09:44:31;4.70;99.90
21906;DHT22;11117;48.644;9.006;2023-12-20T09:46:57;4.90;99.90
21906;DHT22;11117;48.644;9.006;2023-12-20T09:49:23;5.00;99.90
21906;DHT22;11117;48.644;9.006;2023-12-20T09:51:51;5.00;99.90
21906;DHT22;11117;48.644;9.006;2023-12-20T09:54:17;5.00;99.90
21906;DHT22;11117;48.644;9.006;2023-12-20T09:56:44;5.00;99.90
21906;DHT22;11117;48.644;9.006;2023-12-20T09:59:10;5.10;99.90
21906;DHT22;11117;48.644;9.006;2023-12-20T10:01:37;5.10;99.90
21906;DHT22;11117;48.644;9.006;2023-12-20T10:04:06;4.90;99.90
21906;DHT22;11117;48.644;9.006;2023-12-20T10:06:33;4.90;99.90
21906;DHT22;11117;48.644;9.006;2023-12-20T10:08:58;4.80;99.90
21906;DHT22;11117;48.644;9.006;2023-12-20T10:11:25;4.80;99.90
21906;DHT22;11117;48.644;9.006;2023-12-20T10:13:50;4.80;99.90
21906;DHT22;11117;48.644;9.006;2023-12-20T10:16:16;4.90;99.90
21906;DHT22;11117;48.644;9.006;2023-12-20T10:18:41;5.10;99.90
21906;DHT22;11117;48.644;9.006;2023-12-20T10:21:07;5.20;99.90
21906;DHT22;11117;48.644;9.006;2023-12-20T10:23:32;5.30;99.90
21906;DHT22;11117;48.644;9.006;2023-12-20T10:25:59;5.40;99.90
21906;DHT22;11117;48.644;9.006;2023-12-20T10:28:25;5.60;99.90
21906;DHT22;11117;48.644;9.006;2023-12-20T10:30:51;5.60;99.90
21906;DHT22;11117;48.644;9.006;2023-12-20T10:33:27;5.80;99.90
21906;DHT22;11117;48.644;9.006;2023-12-20T10:35:53;5.80;99.90
21906;DHT22;11117;48.644;9.006;2023-12-20T10:38:18;5.80;99.90
21906;DHT22;11117;48.644;9.006;2023-12-20T10:40:45;5.80;99.90
21906;DHT22;11117;48.644;9.006;2023-12-20T10:43:11;5.70;99.90
21906;DHT22;11117;48.644;9.006;2023-12-20T10:45:37;5.70;99.90
21906;DHT22;11117;48.644;9.006;2023-12-20T10:48:03;5.70;99.90
21906;DHT22;11117;48.644;9.006;2023-12-20T10:50:30;5.60;99.90
21906;DHT22;11117;48.644;9.006;2023-12-20T10:52:56;5.70;99.90
21906;DHT22;11117;48.644;9.006;2023-12-20T10:55:23;5.60;99.90
21906;DHT22;11117;48.644;9.006;2023-12-20T10:58:23;5.60;99.90
21906;DHT22;11117;48.644;9.006;2023-12-20T11:00:43;5.60;99.90
21906;DHT22;11117;48.644;9.006;2023-12-20T11:03:11;5.50;99.90
21906;DHT22;11117;48.644;9.006;2023-12-20T11:06:16;5.50;99.90
21906;DHT22;11117;48.644;9.006;2023-12-20T11:14:48;5.40;99.90
21906;DHT22;11117;48.644;9.006;2023-12-20T11:17:14;5.50;99.90
21906;DHT22;11117;48.644;9.006;2023-12-20T11:22:20;5.60;99.90
21906;DHT22;11117;48.644;9.006;2023-12-20T11:24:47;5.60;99.90
21906;DHT22;11117;48.644;9.006;2023-12-20T11:27:14;5.60;99.90
21906;DHT22;11117;48.644;9.006;2023-12-20T11:29:40;5.30;99.90
21906;DHT22;11117;48.644;9.006;2023-12-20T11:32:29;5.50;99.90
21906;DHT22;11117;48.644;9.006;2023-12-20T11:35:02;5.50;99.90
21906;DHT22;11117;48.644;9.006;2023-12-20T11:37:41;5.60;99.90
21906;DHT22;11117;48.644;9.006;2023-12-20T11:40:08;5.60;99.90
21906;DHT22;11117;48.644;9.006;2023-12-20T11:42:40;5.60;99.90
21906;DHT22;11117;48.644;9.006;2023-12-20T11:45:12;5.40;99.90
21906;DHT22;11117;48.644;9.006;2023-12-20T11:47:38;5.40;99.90
21906;DHT22;11117;48.644;9.006;2023-12-20T11:50:04;5.30;99.90
21906;DHT22;11117;48.644;9.006;2023-12-20T11:52:30;5.20;99.90
21906;DHT22;11117;48.644;9.006;2023-12-20T11:54:57;5.10;99.90
21906;DHT22;11117;48.644;9.006;2023-12-20T11:57:26;5.10;99.90
21906;DHT22;11117;48.644;9.006;2023-12-20T11:59:51;5.20;99.90
21906;DHT22;11117;48.644;9.006;2023-12-20T12:02:17;5.10;99.90
21906;DHT22;11117;48.644;9.006;2023-12-20T12:04:43;5.10;99.90
21906;DHT22;11117;48.644;9.006;2023-12-20T12:07:08;5.00;99.90
21906;DHT22;11117;48.644;9.006;2023-12-20T12:09:35;5.00;99.90
21906;DHT22;11117;48.644;9.006;2023-12-20T12:12:01;5.00;99.90
21906;DHT22;11117;48.644;9.006;2023-12-20T12:14:26;5.00;99.90
21906;DHT22;11117;48.644;9.006;2023-12-20T12:16:52;5.00;99.90
21906;DHT22;11117;48.644;9.006;2023-12-20T12:19:25;5.00;99.90
21906;DHT22;11117;48.644;9.006;2023-12-20T12:24:36;5.20;99.90
21906;DHT22;11117;48.644;9.006;2023-12-20T12:27:02;5.20;99.90
21906;DHT22;11117;48.644;9.006;2023-12-20T12:29:28;5.20;99.90
21906;DHT22;11117;48.644;9.006;2023-12-20T12:31:53;5.20;99.90
21906;DHT22;11117;48.644;9.006;2023-12-20T12:34:19;5.30;99.90
21906;DHT22;11117;48.644;9.006;2023-12-20T12:36:45;5.40;99.90
21906;DHT22;11117;48.644;9.006;2023-12-20T12:39:13;5.40;99.90
21906;DHT22;11117;48.644;9.006;2023-12-20T12:41:39;5.40;99.90
21906;DHT22;11117;48.644;9.006;2023-12-20T12:44:05;5.50;99.90
21906;DHT22;11117;48.644;9.006;2023-12-20T12:46:30;5.40;99.90
21906;DHT22;11117;48.644;9.006;2023-12-20T12:48:56;5.50;99.90
21906;DHT22;11117;48.644;9.006;2023-12-20T12:51:22;5.50;99.90
21906;DHT22;11117;48.644;9.006;2023-12-20T12:53:47;5.40;99.90
21906;DHT22;11117;48.644;9.006;2023-12-20T12:56:13;5.40;99.90
21906;DHT22;11117;48.644;9.006;2023-12-20T12:58:39;5.50;99.90
21906;DHT22;11117;48.644;9.006;2023-12-20T13:01:04;5.80;99.90
21906;DHT22;11117;48.644;9.006;2023-12-20T13:03:30;6.00;99.90
21906;DHT22;11117;48.644;9.006;2023-12-20T13:05:56;6.00;99.90
21906;DHT22;11117;48.644;9.006;2023-12-20T13:08:21;5.80;99.90
21906;DHT22;11117;48.644;9.006;2023-12-20T13:10:47;5.80;99.90
21906;DHT22;11117;48.644;9.006;2023-12-20T13:13:12;5.80;99.90
21906;DHT22;11117;48.644;9.006;2023-12-20T13:15:38;5.70;99.90
21906;DHT22;11117;48.644;9.006;2023-12-20T13:18:04;5.80;99.90
21906;DHT22;11117;48.644;9.006;2023-12-20T13:20:30;5.70;99.90
21906;DHT22;11117;48.644;9.006;2023-12-20T13:22:55;5.80;99.90
21906;DHT22;11117;48.644;9.006;2023-12-20T13:25:21;5.70;99.90
21906;DHT22;11117;48.644;9.006;2023-12-20T13:27:46;5.60;99.90
21906;DHT22;11117;48.644;9.006;2023-12-20T13:30:12;5.50;99.90
21906;DHT22;11117;48.644;9.006;2023-12-20T13:32:38;5.50;99.90
21906;DHT22;11117;48.644;9.006;2023-12-20T13:35:03;5.60;99.90
21906;DHT22;11117;48.644;9.006;2023-12-20T13:37:29;5.50;99.90
21906;DHT22;11117;48.644;9.006;2023-12-20T13:39:55;5.50;99.90
21906;DHT22;11117;48.644;9.006;2023-12-20T13:42:20;5.50;99.90
21906;DHT22;11117;48.644;9.006;2023-12-20T13:44:46;5.40;99.90
21906;DHT22;11117;48.644;9.006;2023-12-20T13:47:11;5.40;99.90
21906;DHT22;11117;48.644;9.006;2023-12-20T13:49:37;5.20;99.90
21906;DHT22;11117;48.644;9.006;2023-12-20T13:52:02;5.20;99.90
21906;DHT22;11117;48.644;9.006;2023-12-20T13:54:28;5.30;99.90
21906;DHT22;11117;48.644;9.006;2023-12-20T13:56:54;5.30;99.90
21906;DHT22;11117;48.644;9.006;2023-12-20T13:59:19;5.20;99.90
21906;DHT22;11117;48.644;9.006;2023-12-20T14:01:45;5.30;99.90
21906;DHT22;11117;48.644;9.006;2023-12-20T14:04:10;5.30;99.90
21906;DHT22;11117;48.644;9.006;2023-12-20T14:06:36;5.30;99.90
21906;DHT22;11117;48.644;9.006;2023-12-20T14:09:01;5.30;99.90
21906;DHT22;11117;48.644;9.006;2023-12-20T14:11:27;5.30;99.90
21906;DHT22;11117;48.644;9.006;2023-12-20T14:13:52;5.30;99.90
21906;DHT22;11117;48.644;9.006;2023-12-20T14:16:18;5.20;99.90
21906;DHT22;11117;48.644;9.006;2023-12-20T14:18:43;5.30;99.90
21906;DHT22;11117;48.644;9.006;2023-12-20T14:21:09;5.10;99.90
21906;DHT22;11117;48.644;9.006;2023-12-20T14:23:34;5.10;99.90
21906;DHT22;11117;48.644;9.006;2023-12-20T14:26:00;5.00;99.90
21906;DHT22;11117;48.644;9.006;2023-12-20T14:28:25;5.00;99.90
21906;DHT22;11117;48.644;9.006;2023-12-20T14:30:51;5.00;99.90
21906;DHT22;11117;48.644;9.006;2023-12-20T14:33:17;5.00;99.90
21906;DHT22;11117;48.644;9.006;2023-12-20T14:35:42;5.10;99.90
21906;DHT22;11117;48.644;9.006;2023-12-20T14:38:08;5.10;99.90
21906;DHT22;11117;48.644;9.006;2023-12-20T14:40:34;5.00;99.90
21906;DHT22;11117;48.644;9.006;2023-12-20T14:42:59;5.00;99.90
21906;DHT22;11117;48.644;9.006;2023-12-20T14:45:25;5.00;99.90
21906;DHT22;11117;48.644;9.006;2023-12-20T14:47:50;4.90;99.90
21906;DHT22;11117;48.644;9.006;2023-12-20T14:50:16;5.10;99.90
21906;DHT22;11117;48.644;9.006;2023-12-20T14:52:41;5.10;99.90
21906;DHT22;11117;48.644;9.006;2023-12-20T14:55:07;5.10;99.90
21906;DHT22;11117;48.644;9.006;2023-12-20T14:57:32;5.00;99.90
21906;DHT22;11117;48.644;9.006;2023-12-20T14:59:58;4.90;99.90
21906;DHT22;11117;48.644;9.006;2023-12-20T15:02:27;4.90;99.90
21906;DHT22;11117;48.644;9.006;2023-12-20T15:04:53;4.80;99.90
21906;DHT22;11117;48.644;9.006;2023-12-20T15:07:19;4.90;99.90
21906;DHT22;11117;48.644;9.006;2023-12-20T15:09:44;4.80;99.90
21906;DHT22;11117;48.644;9.006;2023-12-20T15:12:10;4.90;99.90
21906;DHT22;11117;48.644;9.006;2023-12-20T15:14:35;4.90;99.90
21906;DHT22;11117;48.644;9.006;2023-12-20T15:17:01;4.80;99.90
21906;DHT22;11117;48.644;9.006;2023-12-20T15:19:27;4.70;99.90
21906;DHT22;11117;48.644;9.006;2023-12-20T15:21:52;4.60;99.90
21906;DHT22;11117;48.644;9.006;2023-12-20T15:24:18;4.60;99.90
21906;DHT22;11117;48.644;9.006;2023-12-20T15:26:43;4.50;99.90
21906;DHT22;11117;48.644;9.006;2023-12-20T15:29:10;4.50;99.90
21906;DHT22;11117;48.644;9.006;2023-12-20T15:31:41;4.50;99.90
21906;DHT22;11117;48.644;9.006;2023-12-20T15:34:07;4.70;99.90
21906;DHT22;11117;48.644;9.006;2023-12-20T15:36:32;4.90;99.90
21906;DHT22;11117;48.644;9.006;2023-12-20T15:38:58;5.00;99.90
21906;DHT22;11117;48.644;9.006;2023-12-20T15:41:23;5.20;99.90
21906;DHT22;11117;48.644;9.006;2023-12-20T15:43:49;5.30;99.90
21906;DHT22;11117;48.644;9.006;2023-12-20T15:46:14;5.40;99.90
21906;DHT22;11117;48.644;9.006;2023-12-20T15:48:41;5.30;99.90